sensor_id;sensor_type;location;lat;lon;timestamp;P1;durP1;ratioP1;P2;durP2;ratioP2
54428;SDS011;40337;52.978;6.310;2023-06-22T00:00:50;13.60;;;12.30;;
54428;SDS011;40337;52.978;6.310;2023-06-22T00:03:20;13.73;;;12.43;;
54428;SDS011;40337;52.978;6.310;2023-06-22T00:05:47;12.95;;;11.75;;
54428;SDS011;40337;52.978;6.310;2023-06-22T00:08:13;13.23;;;11.93;;
54428;SDS011;40337;52.978;6.310;2023-06-22T00:10:39;13.95;;;12.65;;
54428;SDS011;40337;52.978;6.310;2023-06-22T00:13:06;13.27;;;11.98;;
54428;SDS011;40337;52.978;6.310;2023-06-22T00:15:33;13.43;;;12.18;;
54428;SDS011;40337;52.978;6.310;2023-06-22T00:17:59;14.00;;;12.70;;
54428;SDS011;40337;52.978;6.310;2023-06-22T00:20:26;14.10;;;12.63;;
54428;SDS011;40337;52.978;6.310;2023-06-22T00:22:56;15.55;;;13.95;;
54428;SDS011;40337;52.978;6.310;2023-06-22T00:25:23;12.75;;;11.43;;
54428;SDS011;40337;52.978;6.310;2023-06-22T00:27:49;7.85;;;7.15;;
54428;SDS011;40337;52.978;6.310;2023-06-22T00:30:18;8.73;;;7.88;;
54428;SDS011;40337;52.978;6.310;2023-06-22T00:32:44;8.02;;;7.22;;
54428;SDS011;40337;52.978;6.310;2023-06-22T00:35:11;7.00;;;6.30;;
54428;SDS011;40337;52.978;6.310;2023-06-22T00:37:37;9.88;;;8.98;;
54428;SDS011;40337;52.978;6.310;2023-06-22T00:40:03;8.68;;;7.78;;
54428;SDS011;40337;52.978;6.310;2023-06-22T00:42:30;5.13;;;4.63;;
54428;SDS011;40337;52.978;6.310;2023-06-22T00:44:55;4.53;;;4.13;;
54428;SDS011;40337;52.978;6.310;2023-06-22T00:47:21;4.40;;;3.45;;
54428;SDS011;40337;52.978;6.310;2023-06-22T00:49:47;6.07;;;4.63;;
54428;SDS011;40337;52.978;6.310;2023-06-22T00:52:16;9.18;;;7.28;;
54428;SDS011;40337;52.978;6.310;2023-06-22T00:54:46;10.68;;;9.57;;
54428;SDS011;40337;52.978;6.310;2023-06-22T00:57:14;11.52;;;9.43;;
54428;SDS011;40337;52.978;6.310;2023-06-22T00:59:46;9.85;;;8.88;;
54428;SDS011;40337;52.978;6.310;2023-06-22T01:02:13;10.93;;;9.93;;
54428;SDS011;40337;52.978;6.310;2023-06-22T01:04:39;12.88;;;11.68;;
54428;SDS011;40337;52.978;6.310;2023-06-22T01:09:41;13.05;;;11.75;;
54428;SDS011;40337;52.978;6.310;2023-06-22T01:12:21;13.30;;;12.20;;
54428;SDS011;40337;52.978;6.310;2023-06-22T01:14:54;9.80;;;8.82;;
54428;SDS011;40337;52.978;6.310;2023-06-22T01:17:26;8.30;;;7.50;;
54428;SDS011;40337;52.978;6.310;2023-06-22T01:19:54;6.97;;;6.30;;
54428;SDS011;40337;52.978;6.310;2023-06-22T01:22:22;7.50;;;6.80;;
54428;SDS011;40337;52.978;6.310;2023-06-22T01:27:39;13.52;;;12.27;;
54428;SDS011;40337;52.978;6.310;2023-06-22T01:30:11;15.30;;;13.98;;
54428;SDS011;40337;52.978;6.310;2023-06-22T01:32:41;15.35;;;13.95;;
54428;SDS011;40337;52.978;6.310;2023-06-22T01:35:08;14.68;;;13.18;;
54428;SDS011;40337;52.978;6.310;2023-06-22T01:37:34;19.10;;;17.13;;
54428;SDS011;40337;52.978;6.310;2023-06-22T01:40:01;14.85;;;13.45;;
54428;SDS011;40337;52.978;6.310;2023-06-22T01:42:30;15.95;;;14.27;;
54428;SDS011;40337;52.978;6.310;2023-06-22T01:44:57;16.60;;;14.90;;
54428;SDS011;40337;52.978;6.310;2023-06-22T01:47:24;16.83;;;15.23;;
54428;SDS011;40337;52.978;6.310;2023-06-22T01:49:50;15.18;;;13.50;;
54428;SDS011;40337;52.978;6.310;2023-06-22T01:52:17;13.93;;;12.52;;
54428;SDS011;40337;52.978;6.310;2023-06-22T01:54:43;15.70;;;14.10;;
54428;SDS011;40337;52.978;6.310;2023-06-22T01:57:08;17.70;;;15.82;;
54428;SDS011;40337;52.978;6.310;2023-06-22T01:59:37;19.60;;;14.80;;
54428;SDS011;40337;52.978;6.310;2023-06-22T02:02:10;14.18;;;12.98;;
54428;SDS011;40337;52.978;6.310;2023-06-22T02:05:00;15.50;;;14.13;;
54428;SDS011;40337;52.978;6.310;2023-06-22T02:07:28;14.32;;;13.13;;
54428;SDS011;40337;52.978;6.310;2023-06-22T02:09:57;14.15;;;12.85;;
54428;SDS011;40337;52.978;6.310;2023-06-22T02:12:24;11.50;;;10.23;;
54428;SDS011;40337;52.978;6.310;2023-06-22T02:14:52;10.55;;;9.65;;
54428;SDS011;40337;52.978;6.310;2023-06-22T02:17:18;12.60;;;11.50;;
54428;SDS011;40337;52.978;6.310;2023-06-22T02:19:44;11.30;;;10.27;;
54428;SDS011;40337;52.978;6.310;2023-06-22T02:22:10;8.68;;;7.85;;
54428;SDS011;40337;52.978;6.310;2023-06-22T02:24:37;11.18;;;9.88;;
54428;SDS011;40337;52.978;6.310;2023-06-22T02:27:03;8.40;;;7.60;;
54428;SDS011;40337;52.978;6.310;2023-06-22T02:29:30;7.15;;;6.55;;
54428;SDS011;40337;52.978;6.310;2023-06-22T02:31:56;5.75;;;5.15;;
54428;SDS011;40337;52.978;6.310;2023-06-22T02:34:22;5.85;;;5.35;;
54428;SDS011;40337;52.978;6.310;2023-06-22T02:36:48;6.40;;;5.80;;
54428;SDS011;40337;52.978;6.310;2023-06-22T02:39:20;6.30;;;5.70;;
54428;SDS011;40337;52.978;6.310;2023-06-22T02:41:47;8.05;;;7.25;;
54428;SDS011;40337;52.978;6.310;2023-06-22T02:44:13;6.90;;;6.20;;
54428;SDS011;40337;52.978;6.310;2023-06-22T02:46:39;8.20;;;7.50;;
54428;SDS011;40337;52.978;6.310;2023-06-22T02:49:05;10.38;;;9.38;;
54428;SDS011;40337;52.978;6.310;2023-06-22T02:51:32;14.88;;;13.38;;
54428;SDS011;40337;52.978;6.310;2023-06-22T02:53:59;11.95;;;10.85;;
54428;SDS011;40337;52.978;6.310;2023-06-22T02:56:25;12.30;;;11.15;;
54428;SDS011;40337;52.978;6.310;2023-06-22T02:58:51;13.75;;;12.65;;
54428;SDS011;40337;52.978;6.310;2023-06-22T03:01:17;14.50;;;13.20;;
54428;SDS011;40337;52.978;6.310;2023-06-22T03:03:48;15.15;;;13.75;;
54428;SDS011;40337;52.978;6.310;2023-06-22T03:06:13;15.82;;;14.52;;
54428;SDS011;40337;52.978;6.310;2023-06-22T03:08:39;16.90;;;15.40;;
54428;SDS011;40337;52.978;6.310;2023-06-22T03:11:06;15.85;;;14.55;;
54428;SDS011;40337;52.978;6.310;2023-06-22T03:13:32;15.38;;;14.07;;
54428;SDS011;40337;52.978;6.310;2023-06-22T03:15:58;15.77;;;14.48;;
54428;SDS011;40337;52.978;6.310;2023-06-22T03:18:24;17.40;;;16.00;;
54428;SDS011;40337;52.978;6.310;2023-06-22T03:20:49;16.17;;;14.68;;
54428;SDS011;40337;52.978;6.310;2023-06-22T03:23:15;15.50;;;14.20;;
54428;SDS011;40337;52.978;6.310;2023-06-22T03:25:41;17.95;;;16.38;;
54428;SDS011;40337;52.978;6.310;2023-06-22T03:28:09;21.63;;;18.10;;
54428;SDS011;40337;52.978;6.310;2023-06-22T03:30:35;18.10;;;16.50;;
54428;SDS011;40337;52.978;6.310;2023-06-22T03:33:01;18.38;;;15.90;;
54428;SDS011;40337;52.978;6.310;2023-06-22T03:35:26;23.35;;;16.25;;
54428;SDS011;40337;52.978;6.310;2023-06-22T03:37:52;16.63;;;15.02;;
54428;SDS011;40337;52.978;6.310;2023-06-22T03:40:18;17.83;;;16.30;;
54428;SDS011;40337;52.978;6.310;2023-06-22T03:42:43;18.55;;;16.75;;
54428;SDS011;40337;52.978;6.310;2023-06-22T03:45:09;17.13;;;15.63;;
54428;SDS011;40337;52.978;6.310;2023-06-22T03:47:35;19.08;;;17.13;;
54428;SDS011;40337;52.978;6.310;2023-06-22T03:50:01;24.27;;;19.33;;
54428;SDS011;40337;52.978;6.310;2023-06-22T03:52:28;21.23;;;19.15;;
54428;SDS011;40337;52.978;6.310;2023-06-22T03:54:54;21.10;;;19.20;;
54428;SDS011;40337;52.978;6.310;2023-06-22T03:57:19;20.65;;;18.75;;
54428;SDS011;40337;52.978;6.310;2023-06-22T03:59:45;22.42;;;20.10;;
54428;SDS011;40337;52.978;6.310;2023-06-22T04:02:11;21.42;;;19.52;;
54428;SDS011;40337;52.978;6.310;2023-06-22T04:04:36;21.23;;;19.38;;
54428;SDS011;40337;52.978;6.310;2023-06-22T04:07:03;21.15;;;19.25;;
54428;SDS011;40337;52.978;6.310;2023-06-22T04:09:29;22.90;;;20.80;;
54428;SDS011;40337;52.978;6.310;2023-06-22T04:11:55;25.95;;;22.85;;
54428;SDS011;40337;52.978;6.310;2023-06-22T04:14:20;22.52;;;20.42;;
54428;SDS011;40337;52.978;6.310;2023-06-22T04:16:46;22.80;;;20.50;;
54428;SDS011;40337;52.978;6.310;2023-06-22T04:19:12;22.33;;;20.42;;
54428;SDS011;40337;52.978;6.310;2023-06-22T04:21:42;21.80;;;19.77;;
54428;SDS011;40337;52.978;6.310;2023-06-22T04:24:09;22.23;;;20.23;;
54428;SDS011;40337;52.978;6.310;2023-06-22T04:26:35;22.48;;;20.38;;
54428;SDS011;40337;52.978;6.310;2023-06-22T04:29:02;21.85;;;19.95;;
54428;SDS011;40337;52.978;6.310;2023-06-22T04:31:36;20.83;;;18.98;;
54428;SDS011;40337;52.978;6.310;2023-06-22T04:34:03;18.98;;;17.25;;
54428;SDS011;40337;52.978;6.310;2023-06-22T04:36:36;16.85;;;15.32;;
54428;SDS011;40337;52.978;6.310;2023-06-22T04:39:06;15.90;;;14.57;;
54428;SDS011;40337;52.978;6.310;2023-06-22T04:41:34;18.48;;;16.88;;
54428;SDS011;40337;52.978;6.310;2023-06-22T04:44:11;17.15;;;15.65;;
54428;SDS011;40337;52.978;6.310;2023-06-22T04:46:53;18.52;;;16.90;;
54428;SDS011;40337;52.978;6.310;2023-06-22T04:49:25;18.58;;;17.08;;
54428;SDS011;40337;52.978;6.310;2023-06-22T04:52:01;17.55;;;16.17;;
54428;SDS011;40337;52.978;6.310;2023-06-22T04:54:28;16.95;;;15.65;;
54428;SDS011;40337;52.978;6.310;2023-06-22T04:56:54;19.00;;;17.40;;
54428;SDS011;40337;52.978;6.310;2023-06-22T04:59:27;17.90;;;16.50;;
54428;SDS011;40337;52.978;6.310;2023-06-22T05:01:58;18.35;;;16.83;;
54428;SDS011;40337;52.978;6.310;2023-06-22T05:04:28;20.05;;;18.35;;
54428;SDS011;40337;52.978;6.310;2023-06-22T05:06:57;18.95;;;17.23;;
54428;SDS011;40337;52.978;6.310;2023-06-22T05:09:24;21.38;;;19.58;;
54428;SDS011;40337;52.978;6.310;2023-06-22T05:11:50;21.15;;;19.35;;
54428;SDS011;40337;52.978;6.310;2023-06-22T05:14:16;22.30;;;20.48;;
54428;SDS011;40337;52.978;6.310;2023-06-22T05:16:43;21.13;;;19.30;;
54428;SDS011;40337;52.978;6.310;2023-06-22T05:19:09;22.27;;;20.38;;
54428;SDS011;40337;52.978;6.310;2023-06-22T05:21:35;22.17;;;20.27;;
54428;SDS011;40337;52.978;6.310;2023-06-22T05:24:01;23.52;;;21.42;;
54428;SDS011;40337;52.978;6.310;2023-06-22T05:26:31;23.17;;;21.08;;
54428;SDS011;40337;52.978;6.310;2023-06-22T05:28:59;25.55;;;23.25;;
54428;SDS011;40337;52.978;6.310;2023-06-22T05:31:26;25.83;;;23.52;;
54428;SDS011;40337;52.978;6.310;2023-06-22T05:33:52;26.30;;;24.02;;
54428;SDS011;40337;52.978;6.310;2023-06-22T05:36:19;28.27;;;25.77;;
54428;SDS011;40337;52.978;6.310;2023-06-22T05:38:50;25.25;;;23.02;;
54428;SDS011;40337;52.978;6.310;2023-06-22T05:41:17;27.15;;;24.65;;
54428;SDS011;40337;52.978;6.310;2023-06-22T05:43:42;28.42;;;25.88;;
54428;SDS011;40337;52.978;6.310;2023-06-22T05:46:08;28.85;;;26.17;;
54428;SDS011;40337;52.978;6.310;2023-06-22T05:48:34;28.85;;;26.05;;
54428;SDS011;40337;52.978;6.310;2023-06-22T05:50:59;30.73;;;27.77;;
54428;SDS011;40337;52.978;6.310;2023-06-22T05:53:25;28.63;;;25.98;;
54428;SDS011;40337;52.978;6.310;2023-06-22T05:55:51;32.13;;;28.95;;
54428;SDS011;40337;52.978;6.310;2023-06-22T05:58:16;31.80;;;28.85;;
54428;SDS011;40337;52.978;6.310;2023-06-22T06:00:42;32.63;;;29.63;;
54428;SDS011;40337;52.978;6.310;2023-06-22T06:03:08;31.15;;;28.13;;
54428;SDS011;40337;52.978;6.310;2023-06-22T06:05:35;32.13;;;29.20;;
54428;SDS011;40337;52.978;6.310;2023-06-22T06:08:02;32.47;;;29.50;;
54428;SDS011;40337;52.978;6.310;2023-06-22T06:10:33;30.40;;;27.30;;
54428;SDS011;40337;52.978;6.310;2023-06-22T06:12:59;27.38;;;24.67;;
54428;SDS011;40337;52.978;6.310;2023-06-22T06:15:27;29.55;;;26.73;;
54428;SDS011;40337;52.978;6.310;2023-06-22T06:17:53;29.30;;;26.48;;
54428;SDS011;40337;52.978;6.310;2023-06-22T06:20:19;28.00;;;25.40;;
54428;SDS011;40337;52.978;6.310;2023-06-22T06:22:47;28.67;;;25.80;;
54428;SDS011;40337;52.978;6.310;2023-06-22T06:25:13;28.13;;;25.20;;
54428;SDS011;40337;52.978;6.310;2023-06-22T06:27:42;27.10;;;23.77;;
54428;SDS011;40337;52.978;6.310;2023-06-22T06:30:08;24.77;;;22.33;;
54428;SDS011;40337;52.978;6.310;2023-06-22T06:32:35;25.88;;;23.48;;
54428;SDS011;40337;52.978;6.310;2023-06-22T06:35:01;25.58;;;23.02;;
54428;SDS011;40337;52.978;6.310;2023-06-22T06:37:26;23.73;;;21.42;;
54428;SDS011;40337;52.978;6.310;2023-06-22T06:39:53;22.73;;;20.45;;
54428;SDS011;40337;52.978;6.310;2023-06-22T06:42:18;22.88;;;20.58;;
54428;SDS011;40337;52.978;6.310;2023-06-22T06:44:44;23.75;;;21.38;;
54428;SDS011;40337;52.978;6.310;2023-06-22T06:47:10;22.27;;;19.92;;
54428;SDS011;40337;52.978;6.310;2023-06-22T06:49:36;20.45;;;18.55;;
54428;SDS011;40337;52.978;6.310;2023-06-22T06:52:01;20.20;;;18.17;;
54428;SDS011;40337;52.978;6.310;2023-06-22T06:54:27;18.50;;;16.58;;
54428;SDS011;40337;52.978;6.310;2023-06-22T06:56:53;17.38;;;15.57;;
54428;SDS011;40337;52.978;6.310;2023-06-22T06:59:18;18.35;;;14.85;;
54428;SDS011;40337;52.978;6.310;2023-06-22T07:01:44;17.15;;;15.43;;
54428;SDS011;40337;52.978;6.310;2023-06-22T07:04:10;17.13;;;15.50;;
54428;SDS011;40337;52.978;6.310;2023-06-22T07:06:35;16.98;;;13.75;;
54428;SDS011;40337;52.978;6.310;2023-06-22T07:09:02;16.17;;;14.50;;
54428;SDS011;40337;52.978;6.310;2023-06-22T07:11:28;15.32;;;13.40;;
54428;SDS011;40337;52.978;6.310;2023-06-22T07:13:54;16.60;;;14.65;;
54428;SDS011;40337;52.978;6.310;2023-06-22T07:16:19;17.50;;;14.20;;
54428;SDS011;40337;52.978;6.310;2023-06-22T07:18:45;14.73;;;13.23;;
54428;SDS011;40337;52.978;6.310;2023-06-22T07:21:11;15.13;;;13.13;;
54428;SDS011;40337;52.978;6.310;2023-06-22T07:23:36;12.38;;;11.02;;
54428;SDS011;40337;52.978;6.310;2023-06-22T07:26:02;12.73;;;11.43;;
54428;SDS011;40337;52.978;6.310;2023-06-22T07:28:28;12.35;;;10.60;;
54428;SDS011;40337;52.978;6.310;2023-06-22T07:30:56;12.50;;;11.10;;
54428;SDS011;40337;52.978;6.310;2023-06-22T07:33:22;12.40;;;10.60;;
54428;SDS011;40337;52.978;6.310;2023-06-22T07:35:47;14.23;;;11.07;;
54428;SDS011;40337;52.978;6.310;2023-06-22T07:38:13;12.68;;;10.20;;
54428;SDS011;40337;52.978;6.310;2023-06-22T07:40:40;12.23;;;9.85;;
54428;SDS011;40337;52.978;6.310;2023-06-22T07:43:06;13.25;;;9.70;;
54428;SDS011;40337;52.978;6.310;2023-06-22T07:45:32;10.07;;;9.07;;
54428;SDS011;40337;52.978;6.310;2023-06-22T07:48:00;11.00;;;9.13;;
54428;SDS011;40337;52.978;6.310;2023-06-22T07:50:25;11.20;;;9.15;;
54428;SDS011;40337;52.978;6.310;2023-06-22T07:52:51;11.75;;;10.02;;
54428;SDS011;40337;52.978;6.310;2023-06-22T07:55:17;11.50;;;10.35;;
54428;SDS011;40337;52.978;6.310;2023-06-22T07:57:43;12.10;;;10.90;;
54428;SDS011;40337;52.978;6.310;2023-06-22T08:00:09;15.82;;;11.70;;
54428;SDS011;40337;52.978;6.310;2023-06-22T08:02:40;12.95;;;11.65;;
54428;SDS011;40337;52.978;6.310;2023-06-22T08:05:10;14.98;;;11.38;;
54428;SDS011;40337;52.978;6.310;2023-06-22T08:07:37;12.23;;;11.02;;
54428;SDS011;40337;52.978;6.310;2023-06-22T08:10:04;12.25;;;10.95;;
54428;SDS011;40337;52.978;6.310;2023-06-22T08:12:30;14.60;;;11.45;;
54428;SDS011;40337;52.978;6.310;2023-06-22T08:14:56;11.82;;;10.57;;
54428;SDS011;40337;52.978;6.310;2023-06-22T08:17:22;12.25;;;10.55;;
54428;SDS011;40337;52.978;6.310;2023-06-22T08:19:51;11.85;;;10.43;;
54428;SDS011;40337;52.978;6.310;2023-06-22T08:22:16;12.18;;;10.95;;
54428;SDS011;40337;52.978;6.310;2023-06-22T08:24:43;13.77;;;10.77;;
54428;SDS011;40337;52.978;6.310;2023-06-22T08:27:09;13.20;;;10.93;;
54428;SDS011;40337;52.978;6.310;2023-06-22T08:29:37;12.05;;;10.48;;
54428;SDS011;40337;52.978;6.310;2023-06-22T08:32:02;12.18;;;10.90;;
54428;SDS011;40337;52.978;6.310;2023-06-22T08:34:28;11.07;;;9.48;;
54428;SDS011;40337;52.978;6.310;2023-06-22T08:36:54;11.23;;;10.02;;
54428;SDS011;40337;52.978;6.310;2023-06-22T08:39:19;10.70;;;9.57;;
54428;SDS011;40337;52.978;6.310;2023-06-22T08:41:46;12.05;;;9.38;;
54428;SDS011;40337;52.978;6.310;2023-06-22T08:44:12;10.88;;;8.77;;
54428;SDS011;40337;52.978;6.310;2023-06-22T08:46:38;10.68;;;9.13;;
54428;SDS011;40337;52.978;6.310;2023-06-22T08:49:05;10.18;;;8.90;;
54428;SDS011;40337;52.978;6.310;2023-06-22T08:51:31;9.70;;;8.60;;
54428;SDS011;40337;52.978;6.310;2023-06-22T08:53:59;11.52;;;8.05;;
54428;SDS011;40337;52.978;6.310;2023-06-22T08:56:24;10.40;;;8.43;;
54428;SDS011;40337;52.978;6.310;2023-06-22T08:58:50;9.27;;;8.27;;
54428;SDS011;40337;52.978;6.310;2023-06-22T09:01:15;8.45;;;7.65;;
54428;SDS011;40337;52.978;6.310;2023-06-22T09:03:41;8.85;;;7.43;;
54428;SDS011;40337;52.978;6.310;2023-06-22T09:06:07;8.63;;;7.70;;
54428;SDS011;40337;52.978;6.310;2023-06-22T09:08:36;8.77;;;6.75;;
54428;SDS011;40337;52.978;6.310;2023-06-22T09:11:01;10.35;;;7.40;;
54428;SDS011;40337;52.978;6.310;2023-06-22T09:13:30;7.85;;;6.25;;
54428;SDS011;40337;52.978;6.310;2023-06-22T09:15:56;9.43;;;7.07;;
54428;SDS011;40337;52.978;6.310;2023-06-22T09:18:21;9.43;;;6.75;;
54428;SDS011;40337;52.978;6.310;2023-06-22T09:20:47;8.18;;;6.30;;
54428;SDS011;40337;52.978;6.310;2023-06-22T09:23:12;10.65;;;6.63;;
54428;SDS011;40337;52.978;6.310;2023-06-22T09:25:38;9.57;;;7.00;;
54428;SDS011;40337;52.978;6.310;2023-06-22T09:28:05;9.18;;;6.20;;
54428;SDS011;40337;52.978;6.310;2023-06-22T09:30:30;8.60;;;7.30;;
54428;SDS011;40337;52.978;6.310;2023-06-22T09:32:56;8.07;;;6.20;;
54428;SDS011;40337;52.978;6.310;2023-06-22T09:35:21;7.75;;;6.50;;
54428;SDS011;40337;52.978;6.310;2023-06-22T09:37:47;7.70;;;6.32;;
54428;SDS011;40337;52.978;6.310;2023-06-22T09:40:13;10.75;;;5.43;;
54428;SDS011;40337;52.978;6.310;2023-06-22T09:42:41;9.15;;;6.55;;
54428;SDS011;40337;52.978;6.310;2023-06-22T09:45:06;8.35;;;5.72;;
54428;SDS011;40337;52.978;6.310;2023-06-22T09:47:32;7.53;;;5.30;;
54428;SDS011;40337;52.978;6.310;2023-06-22T09:49:58;8.60;;;6.07;;
54428;SDS011;40337;52.978;6.310;2023-06-22T09:52:24;6.95;;;5.35;;
54428;SDS011;40337;52.978;6.310;2023-06-22T09:54:50;8.13;;;6.55;;
54428;SDS011;40337;52.978;6.310;2023-06-22T09:57:16;8.25;;;5.63;;
54428;SDS011;40337;52.978;6.310;2023-06-22T09:59:42;6.85;;;5.35;;
54428;SDS011;40337;52.978;6.310;2023-06-22T10:02:07;6.75;;;5.43;;
54428;SDS011;40337;52.978;6.310;2023-06-22T10:04:34;6.22;;;5.25;;
54428;SDS011;40337;52.978;6.310;2023-06-22T10:07:00;8.40;;;5.40;;
54428;SDS011;40337;52.978;6.310;2023-06-22T10:09:26;5.97;;;4.90;;
54428;SDS011;40337;52.978;6.310;2023-06-22T10:11:52;6.90;;;5.50;;
54428;SDS011;40337;52.978;6.310;2023-06-22T10:14:17;6.53;;;5.10;;
54428;SDS011;40337;52.978;6.310;2023-06-22T10:16:44;8.27;;;5.25;;
54428;SDS011;40337;52.978;6.310;2023-06-22T10:19:10;5.63;;;4.78;;
54428;SDS011;40337;52.978;6.310;2023-06-22T10:21:35;6.15;;;4.60;;
54428;SDS011;40337;52.978;6.310;2023-06-22T10:24:01;6.63;;;5.57;;
54428;SDS011;40337;52.978;6.310;2023-06-22T10:26:30;8.25;;;5.43;;
54428;SDS011;40337;52.978;6.310;2023-06-22T10:28:57;7.53;;;5.15;;
54428;SDS011;40337;52.978;6.310;2023-06-22T10:31:24;9.82;;;5.60;;
54428;SDS011;40337;52.978;6.310;2023-06-22T10:33:49;6.40;;;4.63;;
54428;SDS011;40337;52.978;6.310;2023-06-22T10:36:15;5.82;;;3.90;;
54428;SDS011;40337;52.978;6.310;2023-06-22T10:38:40;7.00;;;4.70;;
54428;SDS011;40337;52.978;6.310;2023-06-22T10:41:06;6.88;;;4.93;;
54428;SDS011;40337;52.978;6.310;2023-06-22T10:43:32;6.25;;;4.03;;
54428;SDS011;40337;52.978;6.310;2023-06-22T10:45:57;5.32;;;4.00;;
54428;SDS011;40337;52.978;6.310;2023-06-22T10:48:23;5.40;;;4.00;;
54428;SDS011;40337;52.978;6.310;2023-06-22T10:50:48;7.22;;;3.90;;
54428;SDS011;40337;52.978;6.310;2023-06-22T10:53:14;7.25;;;3.70;;
54428;SDS011;40337;52.978;6.310;2023-06-22T10:55:40;7.45;;;3.40;;
54428;SDS011;40337;52.978;6.310;2023-06-22T10:58:05;4.35;;;3.20;;
54428;SDS011;40337;52.978;6.310;2023-06-22T11:00:31;5.80;;;3.88;;
54428;SDS011;40337;52.978;6.310;2023-06-22T11:02:56;6.13;;;4.10;;
54428;SDS011;40337;52.978;6.310;2023-06-22T11:05:23;6.35;;;4.47;;
54428;SDS011;40337;52.978;6.310;2023-06-22T11:07:48;5.75;;;3.63;;
54428;SDS011;40337;52.978;6.310;2023-06-22T11:10:15;7.35;;;3.50;;
54428;SDS011;40337;52.978;6.310;2023-06-22T11:12:41;6.57;;;4.07;;
54428;SDS011;40337;52.978;6.310;2023-06-22T11:15:08;4.82;;;3.45;;
54428;SDS011;40337;52.978;6.310;2023-06-22T11:17:34;5.32;;;4.07;;
54428;SDS011;40337;52.978;6.310;2023-06-22T11:20:00;6.00;;;3.60;;
54428;SDS011;40337;52.978;6.310;2023-06-22T11:22:26;5.78;;;3.15;;
54428;SDS011;40337;52.978;6.310;2023-06-22T11:24:52;5.97;;;3.90;;
54428;SDS011;40337;52.978;6.310;2023-06-22T11:27:17;4.70;;;2.92;;
54428;SDS011;40337;52.978;6.310;2023-06-22T11:29:43;5.72;;;3.70;;
54428;SDS011;40337;52.978;6.310;2023-06-22T11:32:09;4.57;;;2.70;;
54428;SDS011;40337;52.978;6.310;2023-06-22T11:34:34;5.43;;;3.60;;
54428;SDS011;40337;52.978;6.310;2023-06-22T11:37:00;5.20;;;3.63;;
54428;SDS011;40337;52.978;6.310;2023-06-22T11:39:26;5.57;;;3.63;;
54428;SDS011;40337;52.978;6.310;2023-06-22T11:41:52;4.53;;;3.15;;
54428;SDS011;40337;52.978;6.310;2023-06-22T11:44:17;4.82;;;3.10;;
54428;SDS011;40337;52.978;6.310;2023-06-22T11:46:43;5.38;;;3.15;;
54428;SDS011;40337;52.978;6.310;2023-06-22T11:49:08;6.28;;;3.80;;
54428;SDS011;40337;52.978;6.310;2023-06-22T11:51:34;5.63;;;3.30;;
54428;SDS011;40337;52.978;6.310;2023-06-22T11:54:00;6.53;;;3.40;;
54428;SDS011;40337;52.978;6.310;2023-06-22T11:56:25;6.25;;;4.07;;
54428;SDS011;40337;52.978;6.310;2023-06-22T11:58:52;4.85;;;3.70;;
54428;SDS011;40337;52.978;6.310;2023-06-22T12:01:19;5.43;;;3.70;;
54428;SDS011;40337;52.978;6.310;2023-06-22T12:03:44;5.72;;;3.38;;
54428;SDS011;40337;52.978;6.310;2023-06-22T12:06:10;5.00;;;3.22;;
54428;SDS011;40337;52.978;6.310;2023-06-22T12:08:36;5.45;;;3.15;;
54428;SDS011;40337;52.978;6.310;2023-06-22T12:11:02;4.90;;;3.20;;
54428;SDS011;40337;52.978;6.310;2023-06-22T12:13:28;3.92;;;3.13;;
54428;SDS011;40337;52.978;6.310;2023-06-22T12:15:54;4.60;;;3.28;;
54428;SDS011;40337;52.978;6.310;2023-06-22T12:18:20;5.32;;;3.85;;
54428;SDS011;40337;52.978;6.310;2023-06-22T12:20:46;5.22;;;3.88;;
54428;SDS011;40337;52.978;6.310;2023-06-22T12:23:12;6.72;;;4.20;;
54428;SDS011;40337;52.978;6.310;2023-06-22T12:25:38;6.20;;;3.30;;
54428;SDS011;40337;52.978;6.310;2023-06-22T12:28:03;7.15;;;3.20;;
54428;SDS011;40337;52.978;6.310;2023-06-22T12:30:29;4.85;;;3.40;;
54428;SDS011;40337;52.978;6.310;2023-06-22T12:32:55;5.18;;;3.83;;
54428;SDS011;40337;52.978;6.310;2023-06-22T12:35:21;4.65;;;2.88;;
54428;SDS011;40337;52.978;6.310;2023-06-22T12:37:46;7.60;;;3.85;;
54428;SDS011;40337;52.978;6.310;2023-06-22T12:40:12;6.05;;;4.30;;
54428;SDS011;40337;52.978;6.310;2023-06-22T12:42:38;5.78;;;4.03;;
54428;SDS011;40337;52.978;6.310;2023-06-22T12:45:04;6.53;;;3.65;;
54428;SDS011;40337;52.978;6.310;2023-06-22T12:47:30;5.93;;;3.50;;
54428;SDS011;40337;52.978;6.310;2023-06-22T12:49:56;5.85;;;3.60;;
54428;SDS011;40337;52.978;6.310;2023-06-22T12:52:21;5.32;;;3.42;;
54428;SDS011;40337;52.978;6.310;2023-06-22T12:54:47;6.82;;;5.00;;
54428;SDS011;40337;52.978;6.310;2023-06-22T12:57:13;6.45;;;5.07;;
54428;SDS011;40337;52.978;6.310;2023-06-22T12:59:39;6.68;;;5.85;;
54428;SDS011;40337;52.978;6.310;2023-06-22T13:02:05;6.00;;;5.03;;
54428;SDS011;40337;52.978;6.310;2023-06-22T13:04:30;7.13;;;5.20;;
54428;SDS011;40337;52.978;6.310;2023-06-22T13:06:56;8.70;;;5.22;;
54428;SDS011;40337;52.978;6.310;2023-06-22T13:09:22;6.82;;;5.38;;
54428;SDS011;40337;52.978;6.310;2023-06-22T13:11:47;7.82;;;5.57;;
54428;SDS011;40337;52.978;6.310;2023-06-22T13:14:13;6.60;;;5.05;;
54428;SDS011;40337;52.978;6.310;2023-06-22T13:16:41;7.60;;;5.40;;
54428;SDS011;40337;52.978;6.310;2023-06-22T13:19:06;8.85;;;5.60;;
54428;SDS011;40337;52.978;6.310;2023-06-22T13:21:32;7.60;;;5.63;;
54428;SDS011;40337;52.978;6.310;2023-06-22T13:23:59;8.48;;;5.53;;
54428;SDS011;40337;52.978;6.310;2023-06-22T13:26:24;7.60;;;4.60;;
54428;SDS011;40337;52.978;6.310;2023-06-22T13:28:50;7.50;;;5.15;;
54428;SDS011;40337;52.978;6.310;2023-06-22T13:31:16;5.93;;;4.80;;
54428;SDS011;40337;52.978;6.310;2023-06-22T13:33:41;5.78;;;4.65;;
54428;SDS011;40337;52.978;6.310;2023-06-22T13:36:07;7.32;;;4.38;;
54428;SDS011;40337;52.978;6.310;2023-06-22T13:38:33;5.47;;;4.75;;
54428;SDS011;40337;52.978;6.310;2023-06-22T13:41:03;6.53;;;4.57;;
54428;SDS011;40337;52.978;6.310;2023-06-22T13:43:29;5.82;;;4.43;;
54428;SDS011;40337;52.978;6.310;2023-06-22T13:45:54;8.20;;;5.70;;
54428;SDS011;40337;52.978;6.310;2023-06-22T13:48:20;14.02;;;5.70;;
54428;SDS011;40337;52.978;6.310;2023-06-22T13:50:45;7.78;;;5.72;;
54428;SDS011;40337;52.978;6.310;2023-06-22T13:53:11;9.05;;;5.00;;
54428;SDS011;40337;52.978;6.310;2023-06-22T13:55:37;8.00;;;5.43;;
54428;SDS011;40337;52.978;6.310;2023-06-22T13:58:02;32.28;;;6.38;;
54428;SDS011;40337;52.978;6.310;2023-06-22T14:00:28;8.38;;;4.55;;
54428;SDS011;40337;52.978;6.310;2023-06-22T14:02:53;10.70;;;5.35;;
54428;SDS011;40337;52.978;6.310;2023-06-22T14:05:19;7.43;;;6.15;;
54428;SDS011;40337;52.978;6.310;2023-06-22T14:07:45;10.07;;;6.45;;
54428;SDS011;40337;52.978;6.310;2023-06-22T14:10:10;14.70;;;6.85;;
54428;SDS011;40337;52.978;6.310;2023-06-22T14:12:36;7.30;;;6.60;;
54428;SDS011;40337;52.978;6.310;2023-06-22T14:15:02;10.15;;;6.75;;
54428;SDS011;40337;52.978;6.310;2023-06-22T14:17:27;7.63;;;5.65;;
54428;SDS011;40337;52.978;6.310;2023-06-22T14:19:53;6.50;;;5.18;;
54428;SDS011;40337;52.978;6.310;2023-06-22T14:22:19;7.80;;;5.28;;
54428;SDS011;40337;52.978;6.310;2023-06-22T14:24:45;7.45;;;4.93;;
54428;SDS011;40337;52.978;6.310;2023-06-22T14:27:12;6.53;;;4.88;;
54428;SDS011;40337;52.978;6.310;2023-06-22T14:29:37;8.80;;;6.82;;
54428;SDS011;40337;52.978;6.310;2023-06-22T14:32:03;8.45;;;6.53;;
54428;SDS011;40337;52.978;6.310;2023-06-22T14:34:31;10.25;;;6.72;;